TimeMST,TemperatureF,Dew PointF,Humidity,Sea Level PressureIn,VisibilityMPH,Wind Direction,Wind SpeedMPH,Gust SpeedMPH,PrecipitationIn,Events,Conditions,WindDirDegrees,DateUTC
12:15 AM,23.9,11.5,59,30.42,10.0,Calm,Calm,-,N/A,,Clear,0,2014-01-29 07:15:00
12:35 AM,22.6,12.2,64,30.42,10.0,Calm,Calm,-,N/A,,Clear,0,2014-01-29 07:35:00
12:55 AM,22.6,11.8,63,30.42,10.0,SSW,3.5,-,N/A,,Clear,200,2014-01-29 07:55:00
1:15 AM,22.5,12.6,66,30.41,10.0,Calm,Calm,-,N/A,,Clear,0,2014-01-29 08:15:00
1:35 AM,23.0,12.4,64,30.42,10.0,South,3.5,-,N/A,,Clear,180,2014-01-29 08:35:00
1:55 AM,23.7,11.8,61,30.41,10.0,Calm,Calm,-,N/A,,Clear,0,2014-01-29 08:55:00
2:15 AM,23.5,12.6,63,30.42,10.0,Calm,Calm,-,N/A,,Clear,0,2014-01-29 09:15:00
2:35 AM,23.9,12.6,62,30.41,10.0,Calm,Calm,-,N/A,,Clear,0,2014-01-29 09:35:00
2:55 AM,24.4,12.4,60,30.41,10.0,Calm,Calm,-,N/A,,Clear,0,2014-01-29 09:55:00
3:15 AM,24.6,11.8,58,30.41,10.0,Calm,Calm,-,N/A,,Clear,0,2014-01-29 10:15:00
3:35 AM,23.9,12.0,61,30.40,10.0,Calm,Calm,-,N/A,,Clear,0,2014-01-29 10:35:00
3:55 AM,23.5,12.4,62,30.39,10.0,Calm,Calm,-,N/A,,Clear,0,2014-01-29 10:55:00
4:15 AM,23.5,13.3,65,30.39,10.0,Calm,Calm,-,N/A,,Clear,0,2014-01-29 11:15:00
4:35 AM,23.9,13.1,63,30.39,10.0,Calm,Calm,-,N/A,,Clear,0,2014-01-29 11:35:00
4:55 AM,23.9,14.0,66,30.39,10.0,Calm,Calm,-,N/A,,Clear,0,2014-01-29 11:55:00
5:15 AM,23.9,14.0,66,30.39,10.0,Calm,Calm,-,N/A,,Clear,0,2014-01-29 12:15:00
5:35 AM,23.9,13.8,65,30.41,10.0,Calm,Calm,-,N/A,,Clear,0,2014-01-29 12:35:00
5:55 AM,23.7,15.4,71,30.42,10.0,Calm,Calm,-,N/A,,Clear,0,2014-01-29 12:55:00
6:15 AM,23.9,15.8,71,30.42,10.0,Calm,Calm,-,N/A,,Clear,0,2014-01-29 13:15:00
6:55 AM,23.9,16.2,72,30.42,10.0,Calm,Calm,-,N/A,,Clear,0,2014-01-29 13:55:00
7:15 AM,24.4,17.2,74,30.42,10.0,Calm,Calm,-,N/A,,Clear,0,2014-01-29 14:15:00
7:35 AM,25.9,17.4,70,30.42,10.0,Calm,Calm,-,N/A,,Clear,0,2014-01-29 14:35:00
7:55 AM,27.3,15.1,60,30.43,10.0,Calm,Calm,-,N/A,,Clear,0,2014-01-29 14:55:00
8:15 AM,28.6,11.3,48,30.43,10.0,Calm,Calm,-,N/A,,Clear,0,2014-01-29 15:15:00
8:35 AM,31.8,12.9,46,30.44,10.0,Calm,Calm,-,N/A,,Clear,0,2014-01-29 15:35:00
8:55 AM,34.0,7.7,33,30.43,10.0,ESE,3.5,-,N/A,,Clear,120,2014-01-29 15:55:00
9:15 AM,35.6,9.5,34,30.42,10.0,SSE,5.8,-,N/A,,Clear,160,2014-01-29 16:15:00
9:35 AM,37.6,11.3,34,30.43,10.0,SE,5.8,-,N/A,,Clear,130,2014-01-29 16:35:00
9:55 AM,38.5,11.1,33,30.44,10.0,SE,3.5,-,N/A,,Clear,140,2014-01-29 16:55:00
10:15 AM,39.6,11.5,32,30.44,10.0,SE,5.8,-,N/A,,Clear,140,2014-01-29 17:15:00
10:35 AM,40.3,12.2,32,30.43,10.0,Calm,Calm,-,N/A,,Clear,0,2014-01-29 17:35:00
10:55 AM,41.0,12.7,32,30.42,10.0,South,3.5,-,N/A,,Clear,170,2014-01-29 17:55:00
11:15 AM,42.4,14.0,32,30.41,10.0,SSE,4.6,-,N/A,,Clear,160,2014-01-29 18:15:00
11:35 AM,43.9,14.4,30,30.39,10.0,SSE,6.9,-,N/A,,Clear,160,2014-01-29 18:35:00
11:55 AM,44.1,14.0,30,30.36,10.0,SSE,6.9,-,N/A,,Clear,150,2014-01-29 18:55:00
12:15 PM,44.2,14.0,30,30.35,10.0,SSE,4.6,-,N/A,,Clear,160,2014-01-29 19:15:00
12:35 PM,45.5,14.9,29,30.32,10.0,South,6.9,-,N/A,,Clear,190,2014-01-29 19:35:00
12:55 PM,46.4,15.1,28,30.30,10.0,South,5.8,-,N/A,,Clear,180,2014-01-29 19:55:00
1:15 PM,47.1,14.5,27,30.28,10.0,SSE,9.2,-,N/A,,Clear,160,2014-01-29 20:15:00
1:35 PM,48.0,14.5,26,30.28,10.0,South,5.8,-,N/A,,Clear,190,2014-01-29 20:35:00
1:55 PM,48.2,14.4,26,30.27,10.0,South,9.2,16.1,N/A,,Clear,170,2014-01-29 20:55:00
2:15 PM,49.1,15.1,26,30.26,10.0,South,6.9,-,N/A,,Clear,190,2014-01-29 21:15:00
2:35 PM,47.7,14.4,26,30.26,10.0,South,5.8,17.3,N/A,,Clear,170,2014-01-29 21:35:00
2:55 PM,48.2,14.5,26,30.25,10.0,SSE,8.1,-,N/A,,Clear,160,2014-01-29 21:55:00
3:15 PM,47.7,14.7,27,30.25,10.0,SSE,6.9,-,N/A,,Clear,160,2014-01-29 22:15:00
3:35 PM,46.8,14.0,27,30.25,10.0,SSE,9.2,16.1,N/A,,Clear,160,2014-01-29 22:35:00
3:55 PM,47.3,14.5,27,30.25,10.0,SSE,8.1,-,N/A,,Clear,160,2014-01-29 22:55:00
4:15 PM,46.0,14.2,28,30.26,10.0,South,9.2,-,N/A,,Clear,170,2014-01-29 23:15:00
4:35 PM,45.9,14.0,28,30.26,10.0,SSE,4.6,-,N/A,,Clear,160,2014-01-29 23:35:00
4:55 PM,43.5,13.5,30,30.25,10.0,SSE,5.8,-,N/A,,Clear,160,2014-01-29 23:55:00
5:15 PM,41.2,13.5,32,30.24,10.0,SSE,5.8,-,N/A,,Clear,150,2014-01-30 00:15:00
5:35 PM,39.7,13.3,34,30.25,10.0,SSE,3.5,-,N/A,,Clear,160,2014-01-30 00:35:00
5:55 PM,38.8,13.3,35,30.24,10.0,SSE,5.8,-,N/A,,Clear,150,2014-01-30 00:55:00
6:15 PM,37.0,13.6,38,30.24,10.0,SSE,3.5,-,N/A,,Clear,150,2014-01-30 01:15:00
6:35 PM,36.0,14.5,42,30.24,10.0,SSE,4.6,-,N/A,,Clear,160,2014-01-30 01:35:00
6:55 PM,36.1,14.7,42,30.24,10.0,SSE,4.6,-,N/A,,Clear,150,2014-01-30 01:55:00
7:15 PM,36.5,13.8,39,30.23,10.0,SSE,5.8,-,N/A,,Clear,160,2014-01-30 02:15:00
7:35 PM,36.5,13.5,39,30.23,10.0,SSE,4.6,-,N/A,,Clear,160,2014-01-30 02:35:00
7:55 PM,36.9,12.7,37,30.23,10.0,SSE,4.6,-,N/A,,Clear,160,2014-01-30 02:55:00
8:15 PM,36.5,12.2,37,30.24,10.0,SSE,3.5,-,N/A,,Clear,160,2014-01-30 03:15:00
8:35 PM,36.9,11.8,36,30.23,10.0,South,4.6,-,N/A,,Clear,170,2014-01-30 03:35:00
8:55 PM,36.1,11.7,36,30.23,10.0,South,8.1,-,N/A,,Clear,170,2014-01-30 03:55:00
9:15 PM,35.6,11.5,37,30.23,10.0,South,6.9,-,N/A,,Clear,170,2014-01-30 04:15:00
9:35 PM,35.6,11.3,37,30.22,10.0,SSE,8.1,-,N/A,,Clear,160,2014-01-30 04:35:00
9:55 PM,35.1,11.8,38,30.21,10.0,SSE,6.9,-,N/A,,Clear,160,2014-01-30 04:55:00
10:15 PM,34.7,12.2,39,30.20,10.0,SSE,6.9,-,N/A,,Clear,160,2014-01-30 05:15:00
10:35 PM,34.2,12.9,42,30.19,10.0,SSE,6.9,-,N/A,,Clear,160,2014-01-30 05:35:00
10:55 PM,34.0,13.6,43,30.18,10.0,South,6.9,-,N/A,,Clear,170,2014-01-30 05:55:00
11:15 PM,33.4,14.4,46,30.18,10.0,SSE,4.6,-,N/A,,Clear,160,2014-01-30 06:15:00
11:35 PM,33.3,15.3,48,30.18,10.0,South,6.9,-,N/A,,Clear,170,2014-01-30 06:35:00
11:55 PM,33.1,16.2,50,30.17,10.0,South,8.1,-,N/A,,Clear,170,2014-01-30 06:55:00